createdAt,value
2022-09-18T00:01:20.875Z,10.64
2022-09-18T00:03:49.057Z,11.19
2022-09-18T00:06:19.050Z,11.10
2022-09-18T00:08:46.971Z,11.04
2022-09-18T00:11:15.891Z,11.97
2022-09-18T00:13:43.653Z,11.02
2022-09-18T00:16:13.249Z,11.00
2022-09-18T00:18:41.660Z,10.75
2022-09-18T00:21:12.967Z,10.87
2022-09-18T00:23:41.600Z,11.27
2022-09-18T00:26:10.221Z,11.28
2022-09-18T00:28:37.800Z,11.44
2022-09-18T00:31:27.870Z,10.90
2022-09-18T00:33:56.407Z,11.63
2022-09-18T00:36:24.100Z,11.19
2022-09-18T00:38:52.332Z,10.99
2022-09-18T00:41:25.158Z,10.95
2022-09-18T00:44:16.177Z,10.98
2022-09-18T00:46:45.005Z,11.15
2022-09-18T00:49:21.517Z,11.21
2022-09-18T00:51:50.954Z,10.45
2022-09-18T00:54:44.822Z,10.64
2022-09-18T00:57:15.881Z,10.45
2022-09-18T00:59:45.584Z,11.07
2022-09-18T01:02:13.309Z,11.04
2022-09-18T01:04:40.782Z,11.15
2022-09-18T01:07:29.015Z,10.26
2022-09-18T01:10:14.899Z,10.73
2022-09-18T01:12:58.596Z,11.30
2022-09-18T01:15:44.282Z,10.84
2022-09-18T01:18:15.066Z,11.05
2022-09-18T01:21:09.320Z,11.09
2022-09-18T01:23:59.086Z,11.29
2022-09-18T01:26:59.009Z,10.90
2022-09-18T01:29:36.166Z,10.55
2022-09-18T01:32:11.167Z,11.24
2022-09-18T01:34:47.976Z,10.57
2022-09-18T01:37:21.112Z,10.38
2022-09-18T01:40:18.415Z,10.53
2022-09-18T01:42:47.768Z,10.09
2022-09-18T01:45:27.898Z,10.64
2022-09-18T01:48:07.720Z,9.71
2022-09-18T01:50:39.151Z,10.38
2022-09-18T01:53:14.135Z,10.07
2022-09-18T01:55:48.880Z,10.29
2022-09-18T01:58:19.098Z,10.14
2022-09-18T02:00:51.555Z,10.41
2022-09-18T02:03:25.227Z,10.09
2022-09-18T02:06:01.692Z,10.18
2022-09-18T02:08:49.823Z,10.13
2022-09-18T02:11:19.518Z,10.56
2022-09-18T02:13:50.145Z,10.28
2022-09-18T02:16:39.583Z,9.71
2022-09-18T02:19:13.936Z,9.79
2022-09-18T02:21:42.419Z,9.73
2022-09-18T02:24:12.328Z,10.62
2022-09-18T02:26:41.343Z,9.74
2022-09-18T02:29:11.650Z,10.50
2022-09-18T02:31:40.347Z,10.01
2022-09-18T02:34:08.583Z,9.64
2022-09-18T02:36:48.487Z,10.80
2022-09-18T02:39:28.031Z,10.28
2022-09-18T02:42:17.539Z,10.93
2022-09-18T02:45:09.293Z,10.03
2022-09-18T02:47:49.406Z,9.77
2022-09-18T02:50:31.929Z,9.53
2022-09-18T02:53:08.525Z,9.58
2022-09-18T02:55:46.605Z,9.82
2022-09-18T02:58:36.089Z,9.54
2022-09-18T03:01:05.410Z,10.65
2022-09-18T03:03:37.728Z,11.34
2022-09-18T03:06:06.969Z,11.68
2022-09-18T03:08:35.395Z,11.75
2022-09-18T03:11:04.343Z,11.51
2022-09-18T03:13:32.239Z,11.10
2022-09-18T03:15:59.920Z,10.66
2022-09-18T03:18:29.472Z,10.67
2022-09-18T03:20:57.030Z,10.98
2022-09-18T03:23:24.759Z,10.31
2022-09-18T03:25:53.090Z,9.90
2022-09-18T03:28:20.472Z,10.48
2022-09-18T03:30:50.049Z,10.94
2022-09-18T03:33:18.040Z,10.88
2022-09-18T03:35:45.513Z,11.48
2022-09-18T03:38:14.013Z,10.64
2022-09-18T03:40:47.592Z,10.32
2022-09-18T03:43:16.274Z,11.26
2022-09-18T03:45:43.870Z,10.79
2022-09-18T03:48:12.844Z,10.48
2022-09-18T03:50:40.669Z,10.47
2022-09-18T03:53:12.156Z,10.47
2022-09-18T03:55:41.556Z,9.81
2022-09-18T03:58:14.435Z,9.91
2022-09-18T04:00:42.458Z,10.65
2022-09-18T04:03:11.229Z,9.88
2022-09-18T04:05:39.981Z,9.95
2022-09-18T04:08:15.824Z,9.41
2022-09-18T04:10:44.399Z,10.28
2022-09-18T04:13:11.822Z,9.64
2022-09-18T04:15:39.700Z,9.34
2022-09-18T04:18:07.153Z,10.20
2022-09-18T04:20:35.985Z,10.03
2022-09-18T04:23:06.823Z,9.50
2022-09-18T04:25:34.466Z,9.82
2022-09-18T04:28:02.271Z,9.30
2022-09-18T04:30:30.072Z,9.54
2022-09-18T04:32:57.661Z,9.49
2022-09-18T04:35:25.885Z,9.61
2022-09-18T04:37:54.324Z,10.16
2022-09-18T04:40:22.194Z,10.15
2022-09-18T04:42:51.278Z,10.47
2022-09-18T04:45:18.974Z,10.41
2022-09-18T04:47:47.483Z,10.21
2022-09-18T04:50:16.129Z,10.84
2022-09-18T04:52:58.430Z,11.10
2022-09-18T04:55:27.781Z,10.40
2022-09-18T04:57:55.903Z,10.78
2022-09-18T05:00:23.511Z,9.94
2022-09-18T05:02:51.992Z,10.08
2022-09-18T05:05:20.119Z,11.09
2022-09-18T05:07:47.756Z,10.78
2022-09-18T05:10:16.585Z,10.86
2022-09-18T05:12:45.181Z,10.48
2022-09-18T05:15:13.093Z,10.32
2022-09-18T05:17:41.155Z,10.19
2022-09-18T05:20:10.696Z,11.03
2022-09-18T05:22:38.701Z,10.26
2022-09-18T05:25:09.140Z,10.85
2022-09-18T05:27:36.882Z,10.82
2022-09-18T05:30:05.552Z,10.23
2022-09-18T05:32:33.773Z,10.87
2022-09-18T05:35:01.457Z,10.48
2022-09-18T05:37:28.877Z,11.16
2022-09-18T05:39:56.861Z,10.84
2022-09-18T05:42:24.282Z,10.69
2022-09-18T05:44:52.076Z,9.94
2022-09-18T05:47:19.944Z,10.48
2022-09-18T05:49:47.581Z,10.34
2022-09-18T05:52:15.094Z,10.20
2022-09-18T05:54:42.823Z,10.40
2022-09-18T05:57:10.317Z,10.82
2022-09-18T05:59:37.844Z,10.40
2022-09-18T06:02:05.904Z,10.71
2022-09-18T06:04:43.813Z,10.74
2022-09-18T06:07:13.049Z,10.74
2022-09-18T06:09:40.677Z,11.00
2022-09-18T06:12:08.592Z,10.56
2022-09-18T06:14:36.430Z,11.03
2022-09-18T06:17:04.294Z,11.06
2022-09-18T06:19:34.854Z,10.79
2022-09-18T06:22:02.432Z,11.33
2022-09-18T06:24:30.225Z,10.84
2022-09-18T06:26:57.969Z,10.77
2022-09-18T06:29:25.469Z,10.99
2022-09-18T06:31:53.892Z,10.59
2022-09-18T06:34:21.474Z,10.84
2022-09-18T06:36:48.967Z,10.88
2022-09-18T06:39:16.862Z,10.95
2022-09-18T06:41:44.649Z,10.65
2022-09-18T06:44:17.531Z,10.63
2022-09-18T06:46:46.965Z,10.91
2022-09-18T06:49:16.029Z,10.92
2022-09-18T06:51:46.136Z,11.18
2022-09-18T06:54:13.708Z,11.78
2022-09-18T06:56:42.144Z,11.91
2022-09-18T06:59:10.697Z,11.50
2022-09-18T07:01:38.197Z,11.11
2022-09-18T07:04:05.983Z,11.91
2022-09-18T07:06:35.619Z,12.03
2022-09-18T07:09:04.234Z,11.63
2022-09-18T07:11:36.348Z,11.80
2022-09-18T07:14:08.208Z,12.25
2022-09-18T07:16:36.077Z,12.03
2022-09-18T07:19:03.704Z,12.57
2022-09-18T07:21:31.071Z,11.91
2022-09-18T07:23:58.815Z,11.73
2022-09-18T07:26:26.485Z,11.98
2022-09-18T07:28:54.115Z,12.08
2022-09-18T07:31:22.613Z,12.04
2022-09-18T07:33:52.118Z,12.30
2022-09-18T07:36:19.782Z,12.12
2022-09-18T07:38:52.620Z,12.10
2022-09-18T07:41:20.340Z,12.62
2022-09-18T07:43:51.836Z,12.84
2022-09-18T07:46:19.534Z,12.93
2022-09-18T07:48:47.634Z,12.57
2022-09-18T07:51:15.737Z,12.28
2022-09-18T07:53:44.000Z,12.64
2022-09-18T07:56:12.615Z,12.58
2022-09-18T07:58:40.723Z,12.82
2022-09-18T08:01:10.484Z,12.38
2022-09-18T08:03:41.459Z,12.41
2022-09-18T08:06:09.941Z,12.91
2022-09-18T08:08:38.569Z,12.48
2022-09-18T08:11:06.755Z,12.23
2022-09-18T08:13:34.624Z,12.23
2022-09-18T08:16:03.878Z,12.73
2022-09-18T08:18:38.514Z,13.29
2022-09-18T08:21:10.636Z,13.15
2022-09-18T08:23:39.418Z,12.82
2022-09-18T08:26:08.025Z,12.95
2022-09-18T08:28:35.703Z,12.89
2022-09-18T08:31:03.695Z,13.04
2022-09-18T08:33:32.459Z,12.70
2022-09-18T08:36:00.949Z,12.94
2022-09-18T08:38:29.464Z,12.77
2022-09-18T08:41:09.854Z,12.82
2022-09-18T08:43:40.085Z,13.14
2022-09-18T08:46:16.919Z,12.69
2022-09-18T08:48:54.532Z,12.79
2022-09-18T08:51:22.425Z,13.01
2022-09-18T08:53:54.591Z,13.05
2022-09-18T08:56:25.154Z,13.25
2022-09-18T08:58:57.006Z,13.49
2022-09-18T09:01:38.752Z,12.62
2022-09-18T09:04:24.700Z,12.31
2022-09-18T09:07:39.068Z,12.53
2022-09-18T09:10:09.437Z,13.10
2022-09-18T09:12:39.075Z,13.05
2022-09-18T09:15:29.359Z,12.39
2022-09-18T09:18:09.805Z,12.41
2022-09-18T09:20:53.524Z,12.97
2022-09-18T09:23:47.732Z,13.20
2022-09-18T09:26:19.293Z,13.32
2022-09-18T09:29:05.979Z,13.55
2022-09-18T09:31:53.020Z,13.24
2022-09-18T09:34:44.543Z,13.00
2022-09-18T09:37:21.190Z,12.76
2022-09-18T09:39:54.285Z,12.72
2022-09-18T09:42:32.584Z,12.68
2022-09-18T09:45:10.088Z,12.40
2022-09-18T09:47:47.525Z,12.87
2022-09-18T09:50:40.074Z,12.78
2022-09-18T09:53:11.188Z,12.73
2022-09-18T09:56:11.145Z,12.49
2022-09-18T09:59:12.508Z,13.01
2022-09-18T10:02:01.467Z,12.51
2022-09-18T10:04:58.273Z,12.71
2022-09-18T10:07:31.218Z,13.20
2022-09-18T10:10:05.297Z,13.26
2022-09-18T10:12:53.403Z,12.94
2022-09-18T10:15:24.880Z,13.06
2022-09-18T10:17:56.845Z,12.62
2022-09-18T10:20:28.138Z,12.84
2022-09-18T10:22:58.524Z,13.05
2022-09-18T10:25:52.635Z,13.36
2022-09-18T10:28:21.374Z,13.32
2022-09-18T10:30:53.665Z,13.76
2022-09-18T10:33:38.491Z,13.63
2022-09-18T10:36:22.670Z,13.61
2022-09-18T10:38:50.923Z,13.81
2022-09-18T10:41:34.795Z,13.72
2022-09-18T10:44:14.730Z,14.13
2022-09-18T10:46:59.296Z,14.24
2022-09-18T10:49:32.867Z,14.09
2022-09-18T10:52:36.183Z,13.71
2022-09-18T10:55:07.277Z,13.92
2022-09-18T10:57:48.542Z,13.11
2022-09-18T11:00:19.176Z,13.73
2022-09-18T11:02:55.076Z,14.36
2022-09-18T11:05:32.135Z,14.10
2022-09-18T11:08:04.870Z,14.11
2022-09-18T11:10:34.038Z,14.70
2022-09-18T11:13:02.840Z,14.68
2022-09-18T11:15:33.121Z,14.67
2022-09-18T11:18:03.471Z,14.22
2022-09-18T11:20:41.260Z,14.31
2022-09-18T11:23:21.326Z,13.84
2022-09-18T11:26:15.227Z,14.27
2022-09-18T11:28:43.070Z,14.66
2022-09-18T11:31:18.157Z,15.33
2022-09-18T11:33:53.174Z,15.15
2022-09-18T11:36:28.590Z,14.67
2022-09-18T11:38:59.741Z,14.41
2022-09-18T11:41:38.910Z,14.47
2022-09-18T11:44:27.624Z,14.46
2022-09-18T11:47:02.253Z,15.10
2022-09-18T11:49:39.528Z,15.18
2022-09-18T11:52:35.927Z,14.81
2022-09-18T11:55:19.212Z,14.88
2022-09-18T11:57:59.101Z,15.33
2022-09-18T12:00:29.586Z,16.03
2022-09-18T12:03:22.956Z,16.17
2022-09-18T12:05:58.096Z,16.74
2022-09-18T12:08:39.790Z,16.52
2022-09-18T12:11:13.184Z,16.19
2022-09-18T12:13:58.276Z,16.58
2022-09-18T12:16:34.703Z,16.58
2022-09-18T12:19:08.216Z,16.48
2022-09-18T12:21:56.567Z,16.16
2022-09-18T12:24:24.754Z,16.68
2022-09-18T12:27:06.562Z,16.50
2022-09-18T12:29:46.569Z,16.52
2022-09-18T12:32:34.163Z,15.88
2022-09-18T12:35:26.258Z,15.69
2022-09-18T12:38:13.406Z,15.24
2022-09-18T12:41:10.074Z,15.46
2022-09-18T12:43:55.840Z,16.28
2022-09-18T12:46:41.652Z,16.42
2022-09-18T12:49:17.856Z,16.22
2022-09-18T12:51:55.440Z,16.98
2022-09-18T12:54:38.040Z,16.78
2022-09-18T12:57:30.804Z,17.04
2022-09-18T13:00:12.720Z,17.06
2022-09-18T13:02:56.188Z,17.17
2022-09-18T13:05:35.559Z,17.52
2022-09-18T13:08:23.573Z,17.53
2022-09-18T13:10:56.040Z,17.20
2022-09-18T13:14:09.959Z,17.28
2022-09-18T13:16:49.517Z,16.81
2022-09-18T13:19:29.847Z,15.80
2022-09-18T13:22:00.047Z,15.58
2022-09-18T13:24:33.852Z,16.00
2022-09-18T13:27:04.619Z,16.37
2022-09-18T13:29:53.628Z,15.48
2022-09-18T13:32:37.205Z,15.37
2022-09-18T13:35:19.557Z,15.57
2022-09-18T13:37:47.997Z,15.73
2022-09-18T13:40:35.399Z,16.08
2022-09-18T13:43:20.795Z,15.97
2022-09-18T13:45:48.675Z,14.70
2022-09-18T13:48:23.401Z,13.91
2022-09-18T13:50:52.832Z,13.25
2022-09-18T13:53:33.521Z,12.90
2022-09-18T13:56:02.684Z,12.25
2022-09-18T13:58:36.614Z,11.77
2022-09-18T14:01:09.534Z,11.93
2022-09-18T14:03:39.554Z,11.70
2022-09-18T14:06:41.874Z,11.77
2022-09-18T14:09:27.928Z,11.33
2022-09-18T14:11:55.563Z,11.32
2022-09-18T14:14:25.762Z,11.75
2022-09-18T14:16:53.179Z,11.73
2022-09-18T14:19:31.894Z,11.84
2022-09-18T14:22:00.770Z,12.24
2022-09-18T14:24:56.145Z,12.45
2022-09-18T14:27:35.038Z,12.65
2022-09-18T14:30:24.901Z,12.92
2022-09-18T14:33:11.594Z,12.19
2022-09-18T14:35:50.285Z,12.16
2022-09-18T14:38:27.677Z,11.83
2022-09-18T14:40:59.329Z,11.79
2022-09-18T14:43:27.036Z,11.79
2022-09-18T14:45:54.729Z,11.34
2022-09-18T14:48:28.906Z,11.19
2022-09-18T14:51:06.050Z,11.31
2022-09-18T14:53:42.689Z,11.38
2022-09-18T14:56:15.102Z,11.61
2022-09-18T14:58:44.527Z,11.61
2022-09-18T15:01:17.739Z,11.83
2022-09-18T15:03:47.389Z,11.88
2022-09-18T15:06:22.930Z,12.11
2022-09-18T15:08:54.944Z,12.25
2022-09-18T15:11:25.215Z,12.27
2022-09-18T15:13:53.754Z,12.49
2022-09-18T15:16:27.458Z,12.53
2022-09-18T15:18:56.019Z,12.74
2022-09-18T15:21:24.851Z,12.66
2022-09-18T15:23:52.784Z,12.60
2022-09-18T15:26:24.937Z,12.59
2022-09-18T15:28:53.446Z,12.68
2022-09-18T15:31:21.887Z,12.43
2022-09-18T15:33:55.933Z,12.46
2022-09-18T15:36:32.929Z,12.26
2022-09-18T15:39:00.661Z,12.27
2022-09-18T15:41:31.358Z,12.42
2022-09-18T15:43:58.758Z,12.55
2022-09-18T15:46:36.404Z,13.01
2022-09-18T15:49:27.892Z,12.09
2022-09-18T15:51:55.613Z,12.21
2022-09-18T15:54:26.340Z,12.23
2022-09-18T15:56:55.259Z,12.13
2022-09-18T15:59:30.093Z,12.23
2022-09-18T16:01:58.285Z,12.37
2022-09-18T16:04:34.279Z,12.09
2022-09-18T16:07:05.163Z,12.20
2022-09-18T16:09:36.486Z,12.24
2022-09-18T16:12:29.266Z,12.06
2022-09-18T16:15:40.570Z,12.07
2022-09-18T16:18:23.251Z,11.87
2022-09-18T16:20:57.937Z,11.75
2022-09-18T16:23:33.681Z,11.64
2022-09-18T16:26:15.787Z,11.77
2022-09-18T16:28:45.821Z,12.01
2022-09-18T16:31:16.407Z,11.75
2022-09-18T16:33:57.273Z,11.67
2022-09-18T16:36:35.319Z,11.84
2022-09-18T16:39:08.644Z,11.68
2022-09-18T16:41:36.533Z,11.84
2022-09-18T16:44:05.357Z,11.91
2022-09-18T16:46:42.624Z,11.45
2022-09-18T16:49:12.165Z,12.16
2022-09-18T16:51:39.503Z,12.23
2022-09-18T16:54:07.054Z,12.32
2022-09-18T16:56:39.112Z,12.59
2022-09-18T16:59:06.795Z,12.60
2022-09-18T17:01:54.301Z,13.14
2022-09-18T17:04:24.185Z,13.65
2022-09-18T17:06:51.959Z,13.15
2022-09-18T17:09:19.841Z,13.63
2022-09-18T17:11:47.784Z,13.41
2022-09-18T17:14:15.555Z,13.29
2022-09-18T17:16:44.973Z,13.74
2022-09-18T17:19:13.806Z,13.42
2022-09-18T17:21:41.979Z,13.75
2022-09-18T17:24:10.459Z,13.04
2022-09-18T17:26:39.964Z,12.31
2022-09-18T17:29:11.118Z,12.24
2022-09-18T17:31:39.380Z,12.82
2022-09-18T17:34:07.717Z,13.10
2022-09-18T17:36:38.382Z,13.37
2022-09-18T17:39:07.945Z,12.91
2022-09-18T17:41:36.058Z,12.94
2022-09-18T17:44:05.465Z,12.74
2022-09-18T17:46:33.552Z,13.12
2022-09-18T17:49:01.866Z,12.91
2022-09-18T17:51:31.062Z,13.16
2022-09-18T17:54:03.142Z,12.62
2022-09-18T17:56:31.705Z,13.03
2022-09-18T17:59:05.885Z,13.23
2022-09-18T18:01:37.835Z,12.03
2022-09-18T18:04:06.663Z,11.69
2022-09-18T18:06:35.119Z,11.38
2022-09-18T18:09:02.656Z,10.96
2022-09-18T18:11:30.412Z,11.35
2022-09-18T18:13:58.115Z,11.85
2022-09-18T18:16:28.838Z,12.42
2022-09-18T18:18:59.318Z,12.61
2022-09-18T18:21:27.723Z,12.88
2022-09-18T18:24:00.015Z,12.75
2022-09-18T18:26:28.472Z,12.83
2022-09-18T18:28:55.972Z,12.54
2022-09-18T18:31:25.930Z,13.23
2022-09-18T18:33:55.303Z,13.24
2022-09-18T18:36:27.011Z,13.29
2022-09-18T18:38:58.793Z,13.46
2022-09-18T18:41:29.443Z,13.44
2022-09-18T18:44:02.212Z,12.11
2022-09-18T18:46:36.884Z,12.73
2022-09-18T18:49:09.476Z,12.34
2022-09-18T18:51:40.855Z,13.28
2022-09-18T18:54:09.892Z,13.30
2022-09-18T18:56:38.832Z,13.61
2022-09-18T18:59:09.090Z,13.99
2022-09-18T19:01:37.721Z,13.66
2022-09-18T19:04:08.712Z,13.71
2022-09-18T19:06:39.126Z,12.93
2022-09-18T19:09:15.097Z,12.79
2022-09-18T19:11:48.664Z,13.02
2022-09-18T19:14:18.098Z,12.70
2022-09-18T19:16:46.769Z,12.47
2022-09-18T19:19:16.420Z,12.82
2022-09-18T19:21:44.811Z,12.76
2022-09-18T19:24:12.594Z,12.98
2022-09-18T19:26:41.628Z,12.88
2022-09-18T19:29:13.178Z,12.78
2022-09-18T19:31:42.865Z,13.31
2022-09-18T19:34:12.444Z,13.00
2022-09-18T19:36:40.162Z,11.98
2022-09-18T19:39:08.897Z,12.69
2022-09-18T19:41:38.870Z,12.37
2022-09-18T19:44:15.269Z,11.59
2022-09-18T19:46:43.050Z,11.80
2022-09-18T19:49:15.640Z,11.79
2022-09-18T19:51:43.398Z,11.81
2022-09-18T19:54:11.036Z,11.45
2022-09-18T19:56:43.238Z,11.95
2022-09-18T19:59:11.636Z,12.79
2022-09-18T20:01:39.206Z,13.18
2022-09-18T20:04:06.886Z,12.90
2022-09-18T20:06:34.597Z,12.69
2022-09-18T20:09:02.084Z,12.46
2022-09-18T20:11:29.758Z,12.51
2022-09-18T20:13:57.134Z,12.77
2022-09-18T20:16:24.530Z,13.10
2022-09-18T20:18:52.327Z,13.32
2022-09-18T20:21:19.807Z,12.69
2022-09-18T20:23:48.317Z,12.69
2022-09-18T20:26:18.054Z,13.22
2022-09-18T20:28:45.453Z,13.00
2022-09-18T20:31:14.797Z,12.62
2022-09-18T20:33:43.022Z,12.41
2022-09-18T20:36:11.513Z,13.08
2022-09-18T20:38:40.516Z,12.05
2022-09-18T20:41:14.507Z,12.70
2022-09-18T20:43:44.139Z,11.90
2022-09-18T20:46:16.141Z,12.67
2022-09-18T20:48:46.467Z,13.24
2022-09-18T20:51:15.705Z,13.05
2022-09-18T20:53:46.455Z,13.61
2022-09-18T20:56:15.560Z,12.55
2022-09-18T20:58:42.901Z,13.23
2022-09-18T21:01:15.761Z,13.12
2022-09-18T21:03:44.767Z,12.71
2022-09-18T21:06:23.460Z,12.71
2022-09-18T21:08:53.801Z,12.94
2022-09-18T21:11:27.475Z,12.47
2022-09-18T21:14:01.144Z,13.23
2022-09-18T21:16:32.284Z,13.60
2022-09-18T21:19:02.007Z,12.93
2022-09-18T21:21:32.144Z,12.52
2022-09-18T21:24:04.191Z,12.33
2022-09-18T21:26:37.276Z,11.93
2022-09-18T21:29:18.161Z,11.95
2022-09-18T21:31:47.262Z,11.82
2022-09-18T21:34:26.961Z,12.14
2022-09-18T21:36:57.741Z,11.89
2022-09-18T21:39:28.141Z,12.37
2022-09-18T21:41:57.499Z,12.40
2022-09-18T21:44:29.627Z,12.35
2022-09-18T21:47:02.013Z,12.28
2022-09-18T21:49:31.277Z,12.35
2022-09-18T21:52:01.274Z,12.99
2022-09-18T21:54:28.992Z,12.17
2022-09-18T21:56:56.673Z,12.41
2022-09-18T21:59:26.743Z,12.75
2022-09-18T22:01:57.203Z,12.93
2022-09-18T22:04:27.181Z,11.95
2022-09-18T22:06:56.886Z,11.91
2022-09-18T22:09:26.769Z,12.33
2022-09-18T22:11:55.348Z,12.67
2022-09-18T22:14:29.511Z,13.25
2022-09-18T22:17:01.057Z,12.41
2022-09-18T22:19:29.388Z,13.49
2022-09-18T22:21:57.200Z,13.29
2022-09-18T22:24:25.737Z,13.68
2022-09-18T22:27:02.525Z,13.09
2022-09-18T22:29:32.610Z,12.14
2022-09-18T22:32:00.677Z,12.52
2022-09-18T22:34:30.957Z,12.55
2022-09-18T22:36:59.516Z,11.84
2022-09-18T22:39:27.335Z,12.11
2022-09-18T22:41:54.952Z,12.05
2022-09-18T22:44:22.821Z,12.30
2022-09-18T22:46:54.409Z,11.96
2022-09-18T22:49:23.313Z,12.20
2022-09-18T22:51:51.554Z,12.21
2022-09-18T22:54:23.910Z,12.25
2022-09-18T22:56:52.584Z,12.35
2022-09-18T22:59:21.869Z,12.36
2022-09-18T23:01:53.832Z,11.97
2022-09-18T23:04:23.583Z,11.88
2022-09-18T23:06:52.289Z,11.81
2022-09-18T23:09:20.008Z,11.96
2022-09-18T23:11:50.540Z,12.03
2022-09-18T23:14:21.710Z,11.90
2022-09-18T23:16:50.034Z,12.61
2022-09-18T23:19:20.288Z,12.55
2022-09-18T23:21:47.686Z,11.96
2022-09-18T23:24:16.209Z,12.33
2022-09-18T23:26:45.889Z,11.89
2022-09-18T23:29:15.574Z,12.18
2022-09-18T23:31:45.137Z,12.79
2022-09-18T23:34:14.518Z,11.97
2022-09-18T23:36:44.715Z,12.61
2022-09-18T23:39:18.799Z,12.40
2022-09-18T23:41:46.556Z,12.63
2022-09-18T23:44:16.902Z,12.99
2022-09-18T23:46:45.306Z,12.34
2022-09-18T23:49:13.650Z,12.17
2022-09-18T23:51:43.638Z,12.32
2022-09-18T23:54:22.788Z,12.76
2022-09-18T23:56:51.360Z,12.78
2022-09-18T23:59:22.828Z,13.00
